Terminal Aerodrome Forecast
Issued by NWS

Home | Current Version | Previous Version | Text Only | Print | Product List | Glossary Off
Versions: 1 2 3 4 5 6 7 8 9 10 11 12 13 14 15 16 17

191
FTUS43 KGRB 140525
TAFCWA
TAF
KCWA 140525Z 1406/1506 18003KT P6SM SCT040 OVC080
      TEMPO 1408/1411 BKN040
     FM141300 27007KT P6SM SCT080
     FM142300 29003KT P6SM SKC=

USA.gov is the U.S. government's official web portal to all federal, state and local government web resources and services.